Tuesday, July 28, 2015, 1:45 AM EDT

KPTB, Petersburg, Dinwiddie County Airport

Location: Petersburg, VA, United States Lat: 37.183
Local Time: 1:45 AM EDT ( 5:45 GMT) Lon: -77.517
Time Zone: US/Eastern Elev: 193 ft

Show me the last for .
Show Decoded

2015-07-28 01:15 METAR KPTB 280515Z AUTO 00000KT 10SM SCT060 24/24 A3003 RMK AO2 T02370237 =
2015-07-28 00:55 METAR KPTB 280455Z AUTO 00000KT 10SM CLR 24/24 A3002 RMK AO2 T02410241 403130213
                 =
2015-07-28 00:35 METAR KPTB 280435Z AUTO 00000KT 10SM CLR 24/24 A3002 RMK AO2 T02410241 =
2015-07-28 00:15 METAR KPTB 280415Z AUTO 00000KT 10SM CLR 25/25 A3003 RMK AO2 T02450245 =
2015-07-27 23:55 METAR KPTB 280355Z AUTO 16003KT 10SM SCT080 SCT090 25/25 A3002 RMK AO2 T02460246
                 =
2015-07-27 23:35 METAR KPTB 280335Z AUTO 16003KT 10SM SCT043 BKN060 OVC090 25/25 A3002 RMK AO2
                 T02490247 =
2015-07-27 23:15 METAR KPTB 280315Z AUTO 00000KT 10SM BKN043 OVC060 25/25 A3002 RMK AO2 T02480248
                 =
2015-07-27 22:55 METAR KPTB 280255Z AUTO 00000KT 10SM BKN060 25/25 A3002 RMK AO2 T02470247 =
2015-07-27 22:35 METAR KPTB 280235Z AUTO 00000KT 10SM SCT060 25/25 A3001 RMK AO2 T02500246 =
2015-07-27 21:55 METAR KPTB 280155Z AUTO 00000KT 10SM BKN044 BKN065 25/25 A3000 RMK AO2 T02540250
                 =
2015-07-27 21:35 METAR KPTB 280135Z AUTO 00000KT 10SM SCT044 SCT065 26/25 A3000 RMK AO2 T02550251
                 =
2015-07-27 20:55 METAR KPTB 280055Z AUTO 00000KT 10SM SCT065 26/25 A3000 RMK AO2 T02570250 =
2015-07-27 20:15 METAR KPTB 280015Z AUTO 00000KT 10SM SCT070 26/26 A2999 RMK AO2 T02600258 =
2015-07-27 19:55 METAR KPTB 272355Z AUTO 14003KT 7SM -RA BKN070 BKN100 26/26 A2998 RMK AO2
                 T02610259 10313 20261 =
2015-07-27 19:35 METAR KPTB 272335Z AUTO 00000KT 10SM -RA SCT110 27/26 A2998 RMK AO2 LTG DSNT N
                 T02650255 =
2015-07-27 19:15 METAR KPTB 272315Z AUTO 00000KT 10SM -RA SCT055 SCT065 SCT085 27/25 A2998 RMK
                 AO2 LTG DSNT N AND NE T02700253 =
2015-07-27 18:55 METAR KPTB 272255Z AUTO 17003KT 10SM -RA BKN065 BKN080 OVC085 27/26 A2998 RMK
                 AO2 LTG DSNT N AND NW T02700255 =
2015-07-27 18:35 METAR KPTB 272235Z AUTO 00000KT 10SM -RA BKN070 BKN120 28/25 A2998 RMK AO2 LTG
                 DSNT N AND NW T02750252 =
2015-07-27 18:15 METAR KPTB 272215Z AUTO 14004KT 10SM CLR 28/25 A2997 RMK AO2 LTG DSNT NW
                 T02770253 =
2015-07-27 17:35 METAR KPTB 272135Z AUTO 16003KT 10SM SCT038 29/26 A2996 RMK AO2 LTG DSNT NW
                 T02910255 =
2015-07-27 17:15 METAR KPTB 272115Z AUTO 16004KT 10SM SCT032 SCT038 29/25 A2996 RMK AO2 LTG DSNT
                 N AND NW T02920253 =
2015-07-27 16:55 METAR KPTB 272055Z AUTO 00000KT 10SM SCT032 SCT038 30/25 A2997 RMK AO2 LTG DSNT
                 NW T02980254 =
2015-07-27 16:35 METAR KPTB 272035Z AUTO 16006KT 10SM SCT030 SCT038 31/26 A2997 RMK AO2 T03050255
                 =
2015-07-27 16:15 METAR KPTB 272015Z AUTO 16007KT 130V190 10SM SCT028 SCT036 31/25 A2998 RMK AO2
                 T03080254 =
2015-07-27 15:55 METAR KPTB 271955Z AUTO 16005KT 10SM SCT028 31/25 A2999 RMK AO2 T03090251 =
2015-07-27 15:35 METAR KPTB 271935Z AUTO 17005KT 10SM SCT028 31/25 A2998 RMK AO2 T03050251 =
2015-07-27 15:15 METAR KPTB 271915Z AUTO 18006KT 10SM CLR 31/25 A2998 RMK AO2 T03070250 =
2015-07-27 14:55 METAR KPTB 271855Z AUTO 20005KT 10SM CLR 30/25 A3000 RMK AO2 T02970251 =
2015-07-27 14:35 METAR KPTB 271835Z AUTO 19005KT 10SM SCT023 30/25 A3000 RMK AO2 T02960253 =
2015-07-27 14:15 METAR KPTB 271815Z AUTO 19007KT 7SM SCT023 30/26 A3001 RMK AO2 T03020256 =
2015-07-27 13:55 METAR KPTB 271755Z AUTO 20008KT 10SM SCT018 SCT060 30/25 A3000 RMK AO2 T03010253
                 10302 20228 =
2015-07-27 13:35 METAR KPTB 271735Z AUTO 16007KT 120V230 10SM BKN018 OVC060 29/26 A3002 RMK AO2
                 T02930257 =
2015-07-27 13:15 METAR KPTB 271715Z AUTO 21006KT 10SM BKN016 BKN060 OVC070 29/26 A3003 RMK AO2
                 T02860255 =
2015-07-27 12:55 METAR KPTB 271655Z AUTO 19005KT 10SM SCT016 BKN060 BKN095 29/26 A3003 RMK AO2
                 T02850255 =
2015-07-27 12:35 METAR KPTB 271635Z AUTO 15004KT 10SM BKN016 OVC060 28/26 A3003 RMK AO2 T02790257
                 =
2015-07-27 12:15 METAR KPTB 271615Z AUTO 18003KT 10SM OVC016 27/25 A3004 RMK AO2 T02680249 =
2015-07-27 11:55 METAR KPTB 271555Z AUTO 16005KT 10SM BKN014 OVC060 27/25 A3004 RMK AO2 T02670250
                 =
2015-07-27 11:35 METAR KPTB 271535Z AUTO 14003KT 10SM OVC060 26/25 A3004 RMK AO2 T02630247 =
2015-07-27 11:15 METAR KPTB 271515Z AUTO 15003KT 10SM SCT017 OVC060 26/25 A3004 RMK AO2 T02590246
                 =
2015-07-27 10:55 METAR KPTB 271455Z AUTO 16004KT 10SM SCT017 BKN060 BKN110 26/24 A3004 RMK AO2
                 T02580243 =
2015-07-27 10:35 METAR KPTB 271435Z AUTO 17005KT 10SM SCT017 BKN060 BKN110 26/24 A3004 RMK AO2
                 T02580244 =
2015-07-27 10:15 METAR KPTB 271415Z AUTO 00000KT 10SM SCT017 OVC060 25/24 A3004 RMK AO2 T02520243
                 =
2015-07-27 09:55 METAR KPTB 271355Z AUTO 16003KT 10SM BKN060 BKN070 25/24 A3004 RMK AO2 T02510242
                 =
2015-07-27 09:35 METAR KPTB 271335Z AUTO 14003KT 10SM SCT060 25/24 A3003 RMK AO2 T02490242 =
2015-07-27 09:15 METAR KPTB 271315Z AUTO 15003KT 10SM BKN060 25/24 A3003 RMK AO2 T02450240 =
2015-07-27 08:55 METAR KPTB 271255Z AUTO 00000KT 10SM BKN060 24/24 A3004 RMK AO2 T02410238 =
2015-07-27 08:35 METAR KPTB 271235Z AUTO 00000KT 10SM BKN065 BKN070 24/24 A3003 RMK AO2 T02380237
                 =
2015-07-27 08:15 METAR KPTB 271215Z AUTO 00000KT 10SM BKN065 24/24 A3002 RMK AO2 T02350235 =
2015-07-27 07:55 METAR KPTB 271155Z AUTO 00000KT 10SM SCT055 SCT075 23/23 A3001 RMK AO2 T02270227
                 10227 20214 =
2015-07-27 07:35 METAR KPTB 271135Z AUTO 00000KT 10SM BKN055 OVC075 22/22 A3001 RMK AO2 T02230223
                 =
2015-07-27 07:15 METAR KPTB 271115Z AUTO 00000KT 10SM BKN055 22/22 A3001 RMK AO2 T02210221 =
2015-07-27 06:55 METAR KPTB 271055Z AUTO 00000KT 10SM SCT055 22/22 A3001 RMK AO2 T02200220 =
2015-07-27 06:35 METAR KPTB 271035Z AUTO 00000KT 10SM CLR 22/22 A3000 RMK AO2 T02180218 =
2015-07-27 06:15 METAR KPTB 271015Z AUTO 00000KT 10SM SCT055 22/22 A3000 RMK AO2 T02190219 =
2015-07-27 05:55 METAR KPTB 270955Z AUTO 00000KT 10SM SCT055 SCT070 22/22 A3000 RMK AO2 T02210221
                 =
2015-07-27 05:35 METAR KPTB 270935Z AUTO 00000KT 10SM OVC055 22/22 A3000 RMK AO2 T02220222 =
2015-07-27 05:15 METAR KPTB 270915Z AUTO 00000KT 10SM OVC055 22/22 A2999 RMK AO2 T02210221 =
2015-07-27 04:55 METAR KPTB 270855Z AUTO 00000KT 10SM OVC055 22/22 A2999 RMK AO2 T02230223 =
2015-07-27 04:35 METAR KPTB 270835Z AUTO 00000KT 10SM OVC055 22/22 A2999 RMK AO2 T02220222 =
2015-07-27 04:15 METAR KPTB 270815Z AUTO 00000KT 10SM BKN055 OVC075 22/22 A2999 RMK AO2 T02210221
                 =
2015-07-27 03:55 METAR KPTB 270755Z AUTO 16003KT 10SM BKN070 BKN080 OVC100 22/22 A2998 RMK AO2
                 T02220222 =
2015-07-27 03:35 METAR KPTB 270735Z AUTO 00000KT 10SM OVC070 22/22 A2999 RMK AO2 T02200220 =
2015-07-27 03:15 METAR KPTB 270715Z AUTO 00000KT 10SM BKN070 22/22 A2998 RMK AO2 T02190219 =
2015-07-27 02:55 METAR KPTB 270655Z AUTO 17003KT 10SM SCT070 22/22 A2999 RMK AO2 T02180218 =
2015-07-27 02:35 METAR KPTB 270635Z AUTO 00000KT 10SM CLR 22/22 A2999 RMK AO2 T02170217 =
2015-07-27 02:15 METAR KPTB 270615Z AUTO 00000KT 10SM CLR 22/22 A2999 RMK AO2 T02170217 =
2015-07-27 01:55 METAR KPTB 270555Z AUTO 00000KT 10SM CLR 21/21 A2999 RMK AO2 T02130213 10270
                 20213 =

Support USWX by starting your Amazon purchase here.